Aviation Digital Data Service (ADDS)

Output produced by METARs form (1107 UTC 17 June 2019)
found at http://www.aviationweather.gov/metar/data/
 
Forecast for: SARI (IGUAZU/CATARATAS, AR)
Text: TAF SARI 170500Z 1706/1806 05005KT CAVOK TX27/1718Z TN15/1710Z
Forecast period: 0600 UTC 17 June 2019 to 0600 UTC 18 June 2019
Forecast type: FROM: standard forecast or significant change
Winds: from the NE (50 degrees) at 6 MPH (5 knots; 2.6 m/s)
Visibility: 6 or more miles 10+ km)
Ceiling: unknown
Clouds: missing
Weather: no significant weather forecast for this period